sensor_id;sensor_type;location;lat;lon;timestamp;temperature;humidity
54516;DHT22;40422;45.892;4.738;2023-04-24T03:01:04;10.80;99.90
54516;DHT22;40422;45.892;4.738;2023-04-24T03:03:30;10.70;99.90
54516;DHT22;40422;45.892;4.738;2023-04-24T03:05:56;10.70;99.90
54516;DHT22;40422;45.892;4.738;2023-04-24T03:08:23;10.80;99.90
54516;DHT22;40422;45.892;4.738;2023-04-24T03:10:48;10.70;99.90
54516;DHT22;40422;45.892;4.738;2023-04-24T03:13:15;10.70;99.90
54516;DHT22;40422;45.892;4.738;2023-04-24T03:15:41;10.70;99.90
54516;DHT22;40422;45.892;4.738;2023-04-24T03:18:09;10.70;99.90
54516;DHT22;40422;45.892;4.738;2023-04-24T03:20:35;10.70;99.90
54516;DHT22;40422;45.892;4.738;2023-04-24T03:23:02;10.80;99.90
54516;DHT22;40422;45.892;4.738;2023-04-24T03:25:28;10.80;99.90
54516;DHT22;40422;45.892;4.738;2023-04-24T03:27:54;10.70;99.90
54516;DHT22;40422;45.892;4.738;2023-04-24T03:30:20;10.70;99.90
54516;DHT22;40422;45.892;4.738;2023-04-24T03:32:46;10.80;99.90
54516;DHT22;40422;45.892;4.738;2023-04-24T03:35:12;10.80;99.90
54516;DHT22;40422;45.892;4.738;2023-04-24T03:37:37;10.90;99.90
54516;DHT22;40422;45.892;4.738;2023-04-24T03:40:04;10.90;99.90
54516;DHT22;40422;45.892;4.738;2023-04-24T03:42:31;10.90;99.90
54516;DHT22;40422;45.892;4.738;2023-04-24T03:44:57;11.00;99.90
54516;DHT22;40422;45.892;4.738;2023-04-24T03:47:23;11.00;99.90
54516;DHT22;40422;45.892;4.738;2023-04-24T03:49:48;11.00;99.90
54516;DHT22;40422;45.892;4.738;2023-04-24T03:52:14;11.00;99.90
54516;DHT22;40422;45.892;4.738;2023-04-24T03:54:40;11.00;99.90
54516;DHT22;40422;45.892;4.738;2023-04-24T03:57:06;11.00;99.90
54516;DHT22;40422;45.892;4.738;2023-04-24T03:59:32;10.90;99.90
54516;DHT22;40422;45.892;4.738;2023-04-24T04:01:58;10.90;99.90
54516;DHT22;40422;45.892;4.738;2023-04-24T04:04:24;10.80;99.90
54516;DHT22;40422;45.892;4.738;2023-04-24T04:06:50;10.70;99.90
54516;DHT22;40422;45.892;4.738;2023-04-24T04:09:16;10.60;99.90
54516;DHT22;40422;45.892;4.738;2023-04-24T04:11:42;10.60;99.90
54516;DHT22;40422;45.892;4.738;2023-04-24T04:14:08;10.50;99.90
54516;DHT22;40422;45.892;4.738;2023-04-24T04:16:34;10.50;99.90
54516;DHT22;40422;45.892;4.738;2023-04-24T04:19:02;10.50;99.90
54516;DHT22;40422;45.892;4.738;2023-04-24T04:21:29;10.50;99.90
54516;DHT22;40422;45.892;4.738;2023-04-24T04:23:56;10.40;99.90
54516;DHT22;40422;45.892;4.738;2023-04-24T04:26:22;10.40;99.90
54516;DHT22;40422;45.892;4.738;2023-04-24T04:28:51;10.40;99.90
54516;DHT22;40422;45.892;4.738;2023-04-24T04:31:19;10.40;99.90
54516;DHT22;40422;45.892;4.738;2023-04-24T04:33:45;10.40;99.90
54516;DHT22;40422;45.892;4.738;2023-04-24T04:36:11;10.40;99.90
54516;DHT22;40422;45.892;4.738;2023-04-24T04:38:37;10.40;99.90
54516;DHT22;40422;45.892;4.738;2023-04-24T04:41:03;10.30;99.90
54516;DHT22;40422;45.892;4.738;2023-04-24T04:43:29;10.40;99.90
54516;DHT22;40422;45.892;4.738;2023-04-24T04:45:57;10.30;99.90
54516;DHT22;40422;45.892;4.738;2023-04-24T04:48:23;10.30;99.90
54516;DHT22;40422;45.892;4.738;2023-04-24T04:50:49;10.30;99.90
54516;DHT22;40422;45.892;4.738;2023-04-24T04:53:15;10.30;99.90
54516;DHT22;40422;45.892;4.738;2023-04-24T04:55:41;10.20;99.90
54516;DHT22;40422;45.892;4.738;2023-04-24T04:58:07;10.20;99.90
54516;DHT22;40422;45.892;4.738;2023-04-24T05:00:33;10.20;99.90
54516;DHT22;40422;45.892;4.738;2023-04-24T05:03:01;10.20;99.90
54516;DHT22;40422;45.892;4.738;2023-04-24T05:05:28;10.20;99.90
54516;DHT22;40422;45.892;4.738;2023-04-24T05:07:54;10.10;99.90
54516;DHT22;40422;45.892;4.738;2023-04-24T05:10:20;10.20;99.90
54516;DHT22;40422;45.892;4.738;2023-04-24T05:12:45;10.20;99.90
54516;DHT22;40422;45.892;4.738;2023-04-24T05:15:11;10.20;99.90
54516;DHT22;40422;45.892;4.738;2023-04-24T05:17:37;10.10;99.90
54516;DHT22;40422;45.892;4.738;2023-04-24T05:20:06;10.10;99.90
54516;DHT22;40422;45.892;4.738;2023-04-24T05:22:32;10.00;99.90
54516;DHT22;40422;45.892;4.738;2023-04-24T05:24:58;10.00;99.90
54516;DHT22;40422;45.892;4.738;2023-04-24T05:27:24;10.00;99.90
54516;DHT22;40422;45.892;4.738;2023-04-24T05:29:50;10.00;99.90
54516;DHT22;40422;45.892;4.738;2023-04-24T05:32:16;10.00;99.90
54516;DHT22;40422;45.892;4.738;2023-04-24T05:34:42;10.10;99.90
54516;DHT22;40422;45.892;4.738;2023-04-24T05:37:08;10.10;99.90
54516;DHT22;40422;45.892;4.738;2023-04-24T05:39:35;10.10;99.90
54516;DHT22;40422;45.892;4.738;2023-04-24T05:42:02;10.20;99.90
54516;DHT22;40422;45.892;4.738;2023-04-24T05:44:30;10.20;99.90
54516;DHT22;40422;45.892;4.738;2023-04-24T05:46:56;10.30;99.90
54516;DHT22;40422;45.892;4.738;2023-04-24T05:49:22;10.50;99.90
54516;DHT22;40422;45.892;4.738;2023-04-24T05:51:48;10.60;99.90
54516;DHT22;40422;45.892;4.738;2023-04-24T05:54:14;10.70;99.90
54516;DHT22;40422;45.892;4.738;2023-04-24T05:56:40;10.80;99.90
54516;DHT22;40422;45.892;4.738;2023-04-24T05:59:06;10.90;99.90
54516;DHT22;40422;45.892;4.738;2023-04-24T06:01:33;10.90;99.90
54516;DHT22;40422;45.892;4.738;2023-04-24T06:03:59;11.00;99.90
54516;DHT22;40422;45.892;4.738;2023-04-24T06:06:25;11.10;99.90
54516;DHT22;40422;45.892;4.738;2023-04-24T06:08:51;11.10;99.90
54516;DHT22;40422;45.892;4.738;2023-04-24T06:11:17;11.10;99.90
54516;DHT22;40422;45.892;4.738;2023-04-24T06:13:43;11.20;99.90
54516;DHT22;40422;45.892;4.738;2023-04-24T06:16:09;11.20;99.90
54516;DHT22;40422;45.892;4.738;2023-04-24T06:18:35;11.30;99.90
54516;DHT22;40422;45.892;4.738;2023-04-24T06:21:01;11.40;99.90
54516;DHT22;40422;45.892;4.738;2023-04-24T06:23:27;11.50;99.90
54516;DHT22;40422;45.892;4.738;2023-04-24T06:25:52;11.60;99.90
54516;DHT22;40422;45.892;4.738;2023-04-24T06:28:18;11.60;99.90
54516;DHT22;40422;45.892;4.738;2023-04-24T06:30:44;11.70;99.90
54516;DHT22;40422;45.892;4.738;2023-04-24T06:33:10;11.70;99.90
54516;DHT22;40422;45.892;4.738;2023-04-24T06:35:36;11.80;99.90
54516;DHT22;40422;45.892;4.738;2023-04-24T06:38:03;11.90;99.90
54516;DHT22;40422;45.892;4.738;2023-04-24T06:40:30;12.10;99.90
54516;DHT22;40422;45.892;4.738;2023-04-24T06:42:56;12.20;99.90
54516;DHT22;40422;45.892;4.738;2023-04-24T06:45:23;12.20;99.90
54516;DHT22;40422;45.892;4.738;2023-04-24T06:47:49;12.20;99.90
54516;DHT22;40422;45.892;4.738;2023-04-24T06:50:14;12.20;99.90
54516;DHT22;40422;45.892;4.738;2023-04-24T06:52:40;12.30;99.90
54516;DHT22;40422;45.892;4.738;2023-04-24T06:55:07;12.30;99.90
54516;DHT22;40422;45.892;4.738;2023-04-24T06:57:33;12.40;99.90
54516;DHT22;40422;45.892;4.738;2023-04-24T06:59:59;12.40;99.90
54516;DHT22;40422;45.892;4.738;2023-04-24T07:02:25;12.50;99.90
54516;DHT22;40422;45.892;4.738;2023-04-24T07:04:51;12.50;99.90
54516;DHT22;40422;45.892;4.738;2023-04-24T07:07:16;12.50;99.90
54516;DHT22;40422;45.892;4.738;2023-04-24T07:09:42;12.50;99.90
54516;DHT22;40422;45.892;4.738;2023-04-24T07:12:09;12.50;99.90
54516;DHT22;40422;45.892;4.738;2023-04-24T07:14:39;12.50;99.90
54516;DHT22;40422;45.892;4.738;2023-04-24T07:17:05;12.60;99.90
54516;DHT22;40422;45.892;4.738;2023-04-24T07:19:33;12.70;99.90
54516;DHT22;40422;45.892;4.738;2023-04-24T07:21:59;12.80;99.90
54516;DHT22;40422;45.892;4.738;2023-04-24T07:24:25;12.90;99.90
54516;DHT22;40422;45.892;4.738;2023-04-24T07:26:52;12.90;99.90
54516;DHT22;40422;45.892;4.738;2023-04-24T07:29:19;12.90;99.90
54516;DHT22;40422;45.892;4.738;2023-04-24T07:31:45;13.00;99.90
54516;DHT22;40422;45.892;4.738;2023-04-24T07:34:11;13.10;99.90
54516;DHT22;40422;45.892;4.738;2023-04-24T07:36:37;13.10;99.90
54516;DHT22;40422;45.892;4.738;2023-04-24T07:39:04;13.20;99.90
54516;DHT22;40422;45.892;4.738;2023-04-24T07:41:31;13.20;99.90
54516;DHT22;40422;45.892;4.738;2023-04-24T07:43:58;13.20;99.90
54516;DHT22;40422;45.892;4.738;2023-04-24T07:46:24;13.30;99.90
54516;DHT22;40422;45.892;4.738;2023-04-24T07:48:50;13.30;99.90
54516;DHT22;40422;45.892;4.738;2023-04-24T07:51:16;13.30;99.90
54516;DHT22;40422;45.892;4.738;2023-04-24T07:53:43;13.30;99.90
54516;DHT22;40422;45.892;4.738;2023-04-24T07:56:09;13.30;99.90
54516;DHT22;40422;45.892;4.738;2023-04-24T07:58:35;13.40;99.90
54516;DHT22;40422;45.892;4.738;2023-04-24T08:01:01;13.60;99.90
54516;DHT22;40422;45.892;4.738;2023-04-24T08:03:27;13.70;99.90
54516;DHT22;40422;45.892;4.738;2023-04-24T08:05:53;13.90;99.90
54516;DHT22;40422;45.892;4.738;2023-04-24T08:08:21;13.90;99.90
54516;DHT22;40422;45.892;4.738;2023-04-24T08:10:48;13.80;99.90
54516;DHT22;40422;45.892;4.738;2023-04-24T08:13:13;13.60;99.90
54516;DHT22;40422;45.892;4.738;2023-04-24T08:15:39;13.60;99.90
54516;DHT22;40422;45.892;4.738;2023-04-24T08:18:04;13.80;99.90
54516;DHT22;40422;45.892;4.738;2023-04-24T08:20:30;13.90;99.90
54516;DHT22;40422;45.892;4.738;2023-04-24T08:22:56;13.80;99.90
54516;DHT22;40422;45.892;4.738;2023-04-24T08:25:22;13.80;99.90
54516;DHT22;40422;45.892;4.738;2023-04-24T08:27:49;13.90;99.90
54516;DHT22;40422;45.892;4.738;2023-04-24T08:30:14;14.10;99.90
54516;DHT22;40422;45.892;4.738;2023-04-24T08:32:40;14.20;99.90
54516;DHT22;40422;45.892;4.738;2023-04-24T08:35:06;14.30;99.90
54516;DHT22;40422;45.892;4.738;2023-04-24T08:37:34;14.40;99.90
54516;DHT22;40422;45.892;4.738;2023-04-24T08:40:01;14.50;99.60
54516;DHT22;40422;45.892;4.738;2023-04-24T08:42:28;14.50;99.00
54516;DHT22;40422;45.892;4.738;2023-04-24T08:44:55;14.50;99.20
54516;DHT22;40422;45.892;4.738;2023-04-24T08:47:21;14.30;99.60
54516;DHT22;40422;45.892;4.738;2023-04-24T08:49:48;14.40;99.90
54516;DHT22;40422;45.892;4.738;2023-04-24T08:52:15;14.30;99.80
54516;DHT22;40422;45.892;4.738;2023-04-24T08:54:42;14.20;99.90
54516;DHT22;40422;45.892;4.738;2023-04-24T08:57:09;14.30;99.90
54516;DHT22;40422;45.892;4.738;2023-04-24T08:59:38;14.40;99.90
54516;DHT22;40422;45.892;4.738;2023-04-24T09:02:04;14.30;98.60
54516;DHT22;40422;45.892;4.738;2023-04-24T09:04:30;14.40;98.80
54516;DHT22;40422;45.892;4.738;2023-04-24T09:06:58;14.60;99.00
54516;DHT22;40422;45.892;4.738;2023-04-24T09:09:25;14.60;98.70
54516;DHT22;40422;45.892;4.738;2023-04-24T09:11:52;14.50;99.60
54516;DHT22;40422;45.892;4.738;2023-04-24T09:14:21;14.40;99.30
54516;DHT22;40422;45.892;4.738;2023-04-24T09:16:48;14.40;98.30
54516;DHT22;40422;45.892;4.738;2023-04-24T09:19:14;14.50;97.00
54516;DHT22;40422;45.892;4.738;2023-04-24T09:21:40;14.50;96.70
54516;DHT22;40422;45.892;4.738;2023-04-24T09:24:16;14.50;97.80
54516;DHT22;40422;45.892;4.738;2023-04-24T09:26:48;14.50;97.90
54516;DHT22;40422;45.892;4.738;2023-04-24T09:29:17;14.70;99.00
54516;DHT22;40422;45.892;4.738;2023-04-24T09:31:44;14.90;98.30
54516;DHT22;40422;45.892;4.738;2023-04-24T09:34:10;15.20;97.60
54516;DHT22;40422;45.892;4.738;2023-04-24T09:36:41;15.10;96.40
54516;DHT22;40422;45.892;4.738;2023-04-24T09:39:10;15.20;96.80
54516;DHT22;40422;45.892;4.738;2023-04-24T09:41:57;15.30;95.60
54516;DHT22;40422;45.892;4.738;2023-04-24T09:44:25;15.20;95.50
54516;DHT22;40422;45.892;4.738;2023-04-24T09:46:56;15.20;95.50
54516;DHT22;40422;45.892;4.738;2023-04-24T09:49:24;15.40;95.50
54516;DHT22;40422;45.892;4.738;2023-04-24T09:51:50;15.60;95.40
54516;DHT22;40422;45.892;4.738;2023-04-24T09:54:20;15.90;94.00
54516;DHT22;40422;45.892;4.738;2023-04-24T09:56:50;16.10;94.60
54516;DHT22;40422;45.892;4.738;2023-04-24T09:59:18;16.40;93.80
54516;DHT22;40422;45.892;4.738;2023-04-24T10:01:44;16.70;93.60
54516;DHT22;40422;45.892;4.738;2023-04-24T10:04:23;16.80;93.00
54516;DHT22;40422;45.892;4.738;2023-04-24T10:06:51;16.80;92.10
54516;DHT22;40422;45.892;4.738;2023-04-24T10:09:18;17.00;90.50
54516;DHT22;40422;45.892;4.738;2023-04-24T10:11:46;17.10;91.80
54516;DHT22;40422;45.892;4.738;2023-04-24T10:14:13;17.10;91.50
54516;DHT22;40422;45.892;4.738;2023-04-24T10:16:40;17.30;91.50
54516;DHT22;40422;45.892;4.738;2023-04-24T10:19:07;17.30;91.10
54516;DHT22;40422;45.892;4.738;2023-04-24T10:21:34;17.30;91.40
54516;DHT22;40422;45.892;4.738;2023-04-24T10:24:00;17.10;90.90
54516;DHT22;40422;45.892;4.738;2023-04-24T10:26:29;16.70;89.30
54516;DHT22;40422;45.892;4.738;2023-04-24T10:28:57;16.80;90.50
54516;DHT22;40422;45.892;4.738;2023-04-24T10:31:23;17.20;90.60
54516;DHT22;40422;45.892;4.738;2023-04-24T10:33:50;17.20;88.10
54516;DHT22;40422;45.892;4.738;2023-04-24T10:36:18;16.90;90.90
54516;DHT22;40422;45.892;4.738;2023-04-24T10:38:46;16.70;90.00
54516;DHT22;40422;45.892;4.738;2023-04-24T10:41:12;16.60;89.00
54516;DHT22;40422;45.892;4.738;2023-04-24T10:43:45;16.30;89.70
54516;DHT22;40422;45.892;4.738;2023-04-24T10:46:19;16.20;91.40
54516;DHT22;40422;45.892;4.738;2023-04-24T10:48:54;16.40;91.80
54516;DHT22;40422;45.892;4.738;2023-04-24T10:51:23;16.70;91.70
54516;DHT22;40422;45.892;4.738;2023-04-24T10:53:50;16.60;90.10
54516;DHT22;40422;45.892;4.738;2023-04-24T10:56:17;16.80;90.90
54516;DHT22;40422;45.892;4.738;2023-04-24T10:58:50;17.20;90.00
54516;DHT22;40422;45.892;4.738;2023-04-24T11:01:31;17.50;88.30
54516;DHT22;40422;45.892;4.738;2023-04-24T11:04:00;17.70;88.00
54516;DHT22;40422;45.892;4.738;2023-04-24T11:06:33;17.80;89.00
54516;DHT22;40422;45.892;4.738;2023-04-24T11:09:08;18.00;85.70
54516;DHT22;40422;45.892;4.738;2023-04-24T11:11:35;18.40;83.20
54516;DHT22;40422;45.892;4.738;2023-04-24T11:14:02;18.10;83.20
54516;DHT22;40422;45.892;4.738;2023-04-24T11:16:44;17.80;87.60
54516;DHT22;40422;45.892;4.738;2023-04-24T11:19:21;17.50;84.80
54516;DHT22;40422;45.892;4.738;2023-04-24T11:22:01;17.80;83.60
54516;DHT22;40422;45.892;4.738;2023-04-24T11:32:17;19.90;82.20
54516;DHT22;40422;45.892;4.738;2023-04-24T11:34:47;19.80;77.30
54516;DHT22;40422;45.892;4.738;2023-04-24T11:37:13;19.80;81.40
54516;DHT22;40422;45.892;4.738;2023-04-24T11:39:40;19.50;82.00
54516;DHT22;40422;45.892;4.738;2023-04-24T11:42:08;19.10;79.40
54516;DHT22;40422;45.892;4.738;2023-04-24T11:44:36;19.00;79.40
54516;DHT22;40422;45.892;4.738;2023-04-24T11:47:05;19.10;79.80
54516;DHT22;40422;45.892;4.738;2023-04-24T11:49:32;19.40;81.40
54516;DHT22;40422;45.892;4.738;2023-04-24T11:51:59;19.70;78.30
54516;DHT22;40422;45.892;4.738;2023-04-24T11:54:26;19.70;78.50
54516;DHT22;40422;45.892;4.738;2023-04-24T11:56:52;19.80;77.50
54516;DHT22;40422;45.892;4.738;2023-04-24T11:59:19;20.00;76.80
54516;DHT22;40422;45.892;4.738;2023-04-24T12:01:45;19.90;79.90
54516;DHT22;40422;45.892;4.738;2023-04-24T12:04:15;19.60;78.10
54516;DHT22;40422;45.892;4.738;2023-04-24T12:07:03;19.40;75.60
54516;DHT22;40422;45.892;4.738;2023-04-24T12:09:47;19.10;78.30
54516;DHT22;40422;45.892;4.738;2023-04-24T12:12:17;18.90;81.00
54516;DHT22;40422;45.892;4.738;2023-04-24T12:14:44;19.30;79.50
54516;DHT22;40422;45.892;4.738;2023-04-24T12:17:10;19.70;80.30
54516;DHT22;40422;45.892;4.738;2023-04-24T12:19:36;19.10;81.00
54516;DHT22;40422;45.892;4.738;2023-04-24T12:22:04;18.70;79.40
54516;DHT22;40422;45.892;4.738;2023-04-24T12:24:30;18.20;80.10
54516;DHT22;40422;45.892;4.738;2023-04-24T12:26:57;18.10;81.80
54516;DHT22;40422;45.892;4.738;2023-04-24T12:29:24;18.00;81.50
54516;DHT22;40422;45.892;4.738;2023-04-24T12:31:51;18.00;82.50
54516;DHT22;40422;45.892;4.738;2023-04-24T12:34:18;18.10;82.70
54516;DHT22;40422;45.892;4.738;2023-04-24T12:36:46;18.20;79.20
54516;DHT22;40422;45.892;4.738;2023-04-24T12:39:16;18.10;80.10
54516;DHT22;40422;45.892;4.738;2023-04-24T12:41:58;18.00;80.50
54516;DHT22;40422;45.892;4.738;2023-04-24T12:44:35;18.20;83.70
54516;DHT22;40422;45.892;4.738;2023-04-24T12:47:02;18.30;78.30
54516;DHT22;40422;45.892;4.738;2023-04-24T12:49:30;18.50;81.30
54516;DHT22;40422;45.892;4.738;2023-04-24T12:51:56;18.90;80.80
54516;DHT22;40422;45.892;4.738;2023-04-24T12:54:22;19.50;78.20
54516;DHT22;40422;45.892;4.738;2023-04-24T12:56:48;19.40;76.50
54516;DHT22;40422;45.892;4.738;2023-04-24T12:59:13;19.90;76.40
54516;DHT22;40422;45.892;4.738;2023-04-24T13:01:40;20.10;76.70
54516;DHT22;40422;45.892;4.738;2023-04-24T13:04:06;19.90;74.50
54516;DHT22;40422;45.892;4.738;2023-04-24T13:06:32;19.40;75.60
54516;DHT22;40422;45.892;4.738;2023-04-24T13:08:58;19.60;75.30
54516;DHT22;40422;45.892;4.738;2023-04-24T13:11:24;19.40;73.10
54516;DHT22;40422;45.892;4.738;2023-04-24T13:13:51;19.20;75.50
54516;DHT22;40422;45.892;4.738;2023-04-24T13:16:17;19.30;75.30
54516;DHT22;40422;45.892;4.738;2023-04-24T13:18:42;19.30;73.80
54516;DHT22;40422;45.892;4.738;2023-04-24T13:21:08;19.60;74.60
54516;DHT22;40422;45.892;4.738;2023-04-24T13:23:34;19.90;72.80
54516;DHT22;40422;45.892;4.738;2023-04-24T13:26:00;20.20;72.00
54516;DHT22;40422;45.892;4.738;2023-04-24T13:28:26;20.60;71.00
54516;DHT22;40422;45.892;4.738;2023-04-24T13:30:53;21.10;70.00
54516;DHT22;40422;45.892;4.738;2023-04-24T13:33:18;21.50;69.60
54516;DHT22;40422;45.892;4.738;2023-04-24T13:35:45;21.70;69.50
54516;DHT22;40422;45.892;4.738;2023-04-24T13:38:10;21.80;68.30
54516;DHT22;40422;45.892;4.738;2023-04-24T13:40:36;21.60;67.10
54516;DHT22;40422;45.892;4.738;2023-04-24T13:43:02;21.00;69.60
54516;DHT22;40422;45.892;4.738;2023-04-24T13:45:28;19.80;68.80
54516;DHT22;40422;45.892;4.738;2023-04-24T13:47:54;19.40;70.80
54516;DHT22;40422;45.892;4.738;2023-04-24T13:50:20;19.30;69.50
54516;DHT22;40422;45.892;4.738;2023-04-24T13:52:46;19.70;70.10
54516;DHT22;40422;45.892;4.738;2023-04-24T13:55:12;20.10;69.30
54516;DHT22;40422;45.892;4.738;2023-04-24T13:57:38;20.70;69.10
54516;DHT22;40422;45.892;4.738;2023-04-24T14:00:04;21.40;68.90
54516;DHT22;40422;45.892;4.738;2023-04-24T14:02:35;22.00;68.20
54516;DHT22;40422;45.892;4.738;2023-04-24T14:05:01;22.40;66.90
54516;DHT22;40422;45.892;4.738;2023-04-24T14:07:29;22.60;66.40
54516;DHT22;40422;45.892;4.738;2023-04-24T14:09:54;22.20;65.60
54516;DHT22;40422;45.892;4.738;2023-04-24T14:12:20;22.30;64.20
54516;DHT22;40422;45.892;4.738;2023-04-24T14:14:46;22.20;67.10
54516;DHT22;40422;45.892;4.738;2023-04-24T14:41:54;20.30;67.60
54516;DHT22;40422;45.892;4.738;2023-04-24T14:44:20;20.30;66.20
54516;DHT22;40422;45.892;4.738;2023-04-24T14:46:46;20.80;65.30
54516;DHT22;40422;45.892;4.738;2023-04-24T14:49:14;21.00;65.50
54516;DHT22;40422;45.892;4.738;2023-04-24T14:51:40;20.80;67.10
54516;DHT22;40422;45.892;4.738;2023-04-24T14:54:06;20.70;65.40
54516;DHT22;40422;45.892;4.738;2023-04-24T14:56:32;20.50;65.80
54516;DHT22;40422;45.892;4.738;2023-04-24T14:58:58;20.50;65.80
54516;DHT22;40422;45.892;4.738;2023-04-24T15:01:24;20.60;68.50
54516;DHT22;40422;45.892;4.738;2023-04-24T15:03:49;20.40;65.90
54516;DHT22;40422;45.892;4.738;2023-04-24T15:06:15;19.90;66.60
54516;DHT22;40422;45.892;4.738;2023-04-24T15:08:41;19.90;66.90
54516;DHT22;40422;45.892;4.738;2023-04-24T15:11:08;19.80;68.10
54516;DHT22;40422;45.892;4.738;2023-04-24T15:13:34;19.70;69.00
54516;DHT22;40422;45.892;4.738;2023-04-24T15:16:00;19.10;69.20
54516;DHT22;40422;45.892;4.738;2023-04-24T15:18:25;19.00;68.40
54516;DHT22;40422;45.892;4.738;2023-04-24T15:20:52;19.20;71.10
54516;DHT22;40422;45.892;4.738;2023-04-24T15:23:18;19.40;71.70
54516;DHT22;40422;45.892;4.738;2023-04-24T15:25:44;19.70;70.60
54516;DHT22;40422;45.892;4.738;2023-04-24T15:28:10;19.90;71.20
54516;DHT22;40422;45.892;4.738;2023-04-24T15:30:35;20.00;72.80
54516;DHT22;40422;45.892;4.738;2023-04-24T15:33:01;19.90;70.60
54516;DHT22;40422;45.892;4.738;2023-04-24T15:35:27;19.70;72.90
54516;DHT22;40422;45.892;4.738;2023-04-24T15:37:53;19.50;70.30
54516;DHT22;40422;45.892;4.738;2023-04-24T15:40:18;19.50;71.80
54516;DHT22;40422;45.892;4.738;2023-04-24T15:42:45;19.50;71.10
54516;DHT22;40422;45.892;4.738;2023-04-24T15:45:11;19.50;71.00
54516;DHT22;40422;45.892;4.738;2023-04-24T15:47:37;19.60;70.60
54516;DHT22;40422;45.892;4.738;2023-04-24T15:50:04;19.70;69.60
54516;DHT22;40422;45.892;4.738;2023-04-24T15:52:30;19.80;70.40
54516;DHT22;40422;45.892;4.738;2023-04-24T15:54:55;19.90;70.60
54516;DHT22;40422;45.892;4.738;2023-04-24T15:57:21;20.10;69.20
54516;DHT22;40422;45.892;4.738;2023-04-24T15:59:47;20.30;69.50
54516;DHT22;40422;45.892;4.738;2023-04-24T16:02:13;20.60;68.20
54516;DHT22;40422;45.892;4.738;2023-04-24T16:04:45;20.90;67.60
54516;DHT22;40422;45.892;4.738;2023-04-24T16:07:12;21.10;68.70
54516;DHT22;40422;45.892;4.738;2023-04-24T16:09:38;21.30;68.20
54516;DHT22;40422;45.892;4.738;2023-04-24T16:12:03;21.30;68.30
54516;DHT22;40422;45.892;4.738;2023-04-24T16:14:29;21.20;68.00
54516;DHT22;40422;45.892;4.738;2023-04-24T16:16:55;21.20;68.20
54516;DHT22;40422;45.892;4.738;2023-04-24T16:19:20;21.10;67.60
54516;DHT22;40422;45.892;4.738;2023-04-24T16:21:46;20.90;67.60
54516;DHT22;40422;45.892;4.738;2023-04-24T16:24:12;20.80;69.00
54516;DHT22;40422;45.892;4.738;2023-04-24T16:26:38;20.60;67.90
54516;DHT22;40422;45.892;4.738;2023-04-24T16:29:04;20.40;69.40
54516;DHT22;40422;45.892;4.738;2023-04-24T16:31:30;20.30;70.00
54516;DHT22;40422;45.892;4.738;2023-04-24T16:33:55;20.10;68.90
54516;DHT22;40422;45.892;4.738;2023-04-24T16:36:21;20.00;69.00
54516;DHT22;40422;45.892;4.738;2023-04-24T16:38:47;19.90;68.70
54516;DHT22;40422;45.892;4.738;2023-04-24T16:41:15;19.80;69.90
54516;DHT22;40422;45.892;4.738;2023-04-24T16:43:41;19.70;69.70
54516;DHT22;40422;45.892;4.738;2023-04-24T16:46:06;19.60;71.00
54516;DHT22;40422;45.892;4.738;2023-04-24T16:48:32;19.50;70.30
54516;DHT22;40422;45.892;4.738;2023-04-24T16:50:58;19.40;71.40
54516;DHT22;40422;45.892;4.738;2023-04-24T16:53:23;19.30;71.40
54516;DHT22;40422;45.892;4.738;2023-04-24T16:55:49;19.20;71.60
54516;DHT22;40422;45.892;4.738;2023-04-24T16:58:15;19.10;71.80
54516;DHT22;40422;45.892;4.738;2023-04-24T17:00:40;18.90;72.50
54516;DHT22;40422;45.892;4.738;2023-04-24T17:03:06;18.80;73.30
54516;DHT22;40422;45.892;4.738;2023-04-24T17:05:32;18.60;74.30
54516;DHT22;40422;45.892;4.738;2023-04-24T17:07:58;18.40;75.90
54516;DHT22;40422;45.892;4.738;2023-04-24T17:10:24;18.20;77.10
54516;DHT22;40422;45.892;4.738;2023-04-24T17:12:50;18.10;76.50
54516;DHT22;40422;45.892;4.738;2023-04-24T17:15:16;18.00;77.50
54516;DHT22;40422;45.892;4.738;2023-04-24T17:17:41;17.70;77.30
54516;DHT22;40422;45.892;4.738;2023-04-24T17:20:09;17.70;77.00
54516;DHT22;40422;45.892;4.738;2023-04-24T17:22:35;17.60;77.60
54516;DHT22;40422;45.892;4.738;2023-04-24T17:25:00;17.50;78.10
54516;DHT22;40422;45.892;4.738;2023-04-24T17:27:26;17.40;78.50
54516;DHT22;40422;45.892;4.738;2023-04-24T17:29:52;17.30;79.80
54516;DHT22;40422;45.892;4.738;2023-04-24T17:32:18;17.20;80.70
54516;DHT22;40422;45.892;4.738;2023-04-24T17:34:43;17.10;79.80
54516;DHT22;40422;45.892;4.738;2023-04-24T17:37:09;17.00;79.90
54516;DHT22;40422;45.892;4.738;2023-04-24T17:39:35;17.10;80.50
54516;DHT22;40422;45.892;4.738;2023-04-24T17:42:00;17.10;80.20
54516;DHT22;40422;45.892;4.738;2023-04-24T17:44:26;17.10;79.50
54516;DHT22;40422;45.892;4.738;2023-04-24T17:46:52;17.00;80.40
54516;DHT22;40422;45.892;4.738;2023-04-24T17:49:17;16.90;80.70
54516;DHT22;40422;45.892;4.738;2023-04-24T17:51:43;16.90;80.70
54516;DHT22;40422;45.892;4.738;2023-04-24T17:54:09;16.80;81.60
54516;DHT22;40422;45.892;4.738;2023-04-24T17:56:35;16.80;83.30
54516;DHT22;40422;45.892;4.738;2023-04-24T17:59:01;16.70;82.60
54516;DHT22;40422;45.892;4.738;2023-04-24T18:01:26;16.60;82.40
54516;DHT22;40422;45.892;4.738;2023-04-24T18:03:53;16.60;83.20
54516;DHT22;40422;45.892;4.738;2023-04-24T18:06:18;16.50;84.60
54516;DHT22;40422;45.892;4.738;2023-04-24T18:08:44;16.40;82.20
54516;DHT22;40422;45.892;4.738;2023-04-24T18:11:10;16.40;82.60
54516;DHT22;40422;45.892;4.738;2023-04-24T18:13:36;16.40;82.70
54516;DHT22;40422;45.892;4.738;2023-04-24T18:16:03;16.30;83.30
54516;DHT22;40422;45.892;4.738;2023-04-24T18:18:28;16.20;84.20
54516;DHT22;40422;45.892;4.738;2023-04-24T18:20:54;16.10;84.80
54516;DHT22;40422;45.892;4.738;2023-04-24T18:23:20;16.00;85.70
54516;DHT22;40422;45.892;4.738;2023-04-24T18:25:45;15.90;85.30
54516;DHT22;40422;45.892;4.738;2023-04-24T18:28:11;15.80;85.40
54516;DHT22;40422;45.892;4.738;2023-04-24T18:30:37;15.90;85.80
54516;DHT22;40422;45.892;4.738;2023-04-24T18:33:03;15.80;86.00
54516;DHT22;40422;45.892;4.738;2023-04-24T18:35:29;15.80;86.40
54516;DHT22;40422;45.892;4.738;2023-04-24T18:37:54;15.70;86.90
54516;DHT22;40422;45.892;4.738;2023-04-24T18:40:20;15.70;87.20
54516;DHT22;40422;45.892;4.738;2023-04-24T18:42:46;15.60;87.80
54516;DHT22;40422;45.892;4.738;2023-04-24T18:45:12;15.50;89.10
54516;DHT22;40422;45.892;4.738;2023-04-24T18:47:38;15.50;89.30
54516;DHT22;40422;45.892;4.738;2023-04-24T18:50:04;15.30;89.80
54516;DHT22;40422;45.892;4.738;2023-04-24T18:52:30;15.30;90.40
54516;DHT22;40422;45.892;4.738;2023-04-24T18:54:56;15.20;91.50
54516;DHT22;40422;45.892;4.738;2023-04-24T18:57:22;15.10;91.60
54516;DHT22;40422;45.892;4.738;2023-04-24T18:59:47;15.00;92.40